Time;durP1;ratioP1;P1;durP2;ratioP2;P2;SDS_P1;SDS_P2;PMS_P1;PMS_P2;Temp;Humidity;BMP_temperature;BMP_pressure;BME280_temperature;BME280_humidity;BME280_pressure;Samples;Min_cycle;Max_cycle;Signal;HPM_P1;HPM_P2
2022/09/03 00:00:34;;;;;;;2.20;1.90;;;23.50;36.60;24.60;100352.00;;;;5068343;28;20217;-39
2022/09/03 00:03:44;;;;;;;2.67;2.00;;;23.50;36.80;24.70;100369.00;;;;5066053;28;20235;-39
2022/09/03 00:06:23;;;;;;;2.50;2.00;;;23.50;36.90;24.60;100365.00;;;;5028276;28;20531;-38
2022/09/03 00:09:22;;;;;;;1.90;1.80;;;23.50;36.80;24.60;100374.00;;;;4920021;28;4188846;-41
2022/09/03 00:12:08;;;;;;;2.20;2.00;;;23.40;36.80;24.60;100371.00;;;;5053354;28;20228;-38
2022/09/03 00:14:46;;;;;;;2.37;1.90;;;23.40;37.20;24.50;100362.00;;;;5067798;28;20165;-39
2022/09/03 00:17:41;;;;;;;2.00;1.80;;;23.40;37.00;24.60;100369.00;;;;5067879;28;20154;-38
2022/09/03 00:20:30;;;;;;;1.90;1.80;;;23.40;37.20;24.50;100366.00;;;;5036459;28;20220;-38
2022/09/03 00:23:00;;;;;;;2.07;1.87;;;23.40;37.20;24.50;100376.00;;;;5037307;28;20189;-40
2022/09/03 00:26:05;;;;;;;3.03;2.07;;;23.30;37.10;24.50;100368.00;;;;5066135;28;20642;-39
2022/09/03 00:28:45;;;;;;;1.90;1.70;;;23.30;37.10;24.50;100372.00;;;;5020185;28;20258;-39
2022/09/03 00:31:35;;;;;;;2.73;1.73;;;23.40;37.20;24.50;100366.00;;;;5065489;28;20273;-39
2022/09/03 00:34:11;;;;;;;3.10;1.90;;;23.30;37.20;24.40;100359.00;;;;5082831;28;20173;-39
2022/09/03 00:36:44;;;;;;;4.27;1.90;;;23.30;37.10;24.50;100365.00;;;;5069482;28;20184;-42
2022/09/03 00:39:21;;;;;;;2.30;1.90;;;23.30;37.80;24.40;100372.00;;;;5080198;28;20231;-39
2022/09/03 00:42:16;;;;;;;2.67;2.10;;;23.30;37.30;24.40;100365.00;;;;5081597;28;20154;-38
2022/09/03 00:44:57;;;;;;;2.07;1.77;;;23.30;37.30;24.40;100370.00;;;;5065931;28;20158;-39
2022/09/03 00:47:54;;;;;;;1.83;1.73;;;23.20;37.40;24.40;100369.00;;;;5065834;28;20173;-39
2022/09/03 00:51:15;;;;;;;2.10;1.90;;;23.20;37.30;24.30;100372.00;;;;5067352;28;20190;-39
2022/09/03 00:54:08;;;;;;;1.80;1.70;;;23.20;37.40;24.30;100372.00;;;;5033129;28;20201;-39
2022/09/03 00:57:04;;;;;;;1.90;1.80;;;23.10;37.50;24.20;100362.00;;;;5073529;28;20157;-38
2022/09/03 01:00:03;;;;;;;2.17;1.80;;;23.10;37.50;24.20;100366.00;;;;5069212;28;20201;-38
2022/09/03 01:02:50;;;;;;;2.23;1.90;;;23.10;37.50;24.10;100364.00;;;;5067389;28;20158;-38
2022/09/03 01:05:33;;;;;;;1.90;1.80;;;23.00;37.40;23.90;100367.00;;;;5067781;28;20247;-39
2022/09/03 01:08:17;;;;;;;1.80;1.70;;;23.10;37.60;24.10;100367.00;;;;5067965;28;20158;-39
2022/09/03 01:11:09;;;;;;;2.00;1.90;;;23.00;37.50;24.10;100357.00;;;;5067704;28;20205;-39
2022/09/03 01:13:56;;;;;;;2.43;1.87;;;23.00;37.60;24.10;100360.00;;;;5068693;28;20165;-40
2022/09/03 01:16:53;;;;;;;2.10;1.90;;;23.00;37.60;24.10;100354.00;;;;5058301;28;20181;-39
2022/09/03 01:19:50;;;;;;;2.77;1.80;;;23.00;37.70;24.00;100366.00;;;;5082440;28;20172;-39
2022/09/03 01:23:12;;;;;;;1.80;1.70;;;23.00;37.80;24.00;100347.00;;;;5066795;28;20681;-40
2022/09/03 01:26:28;;;;;;;1.80;1.70;;;23.00;37.70;24.00;100346.00;;;;5066749;28;20252;-40
2022/09/03 01:29:02;;;;;;;2.43;1.80;;;23.00;37.80;24.00;100356.00;;;;5049627;28;20181;-39
2022/09/03 01:32:04;;;;;;;2.10;1.83;;;23.00;37.80;23.90;100346.00;;;;5065087;28;20162;-39
2022/09/03 01:35:06;;;;;;;3.20;1.80;;;22.90;37.80;23.90;100356.00;;;;5081929;28;20385;-39
2022/09/03 01:38:10;;;;;;;1.80;1.70;;;22.90;37.80;23.90;100346.00;;;;5064096;28;20189;-39
2022/09/03 01:44:31;;;;;;;3.07;1.90;;;22.80;37.90;23.90;100349.00;;;;5065177;28;20200;-39
2022/09/03 01:47:48;;;;;;;1.80;1.70;;;22.80;37.90;23.90;100349.00;;;;5037475;28;20179;-39
2022/09/03 01:50:59;;;;;;;2.93;1.73;;;22.90;38.10;23.90;100367.00;;;;5065578;28;20223;-39
2022/09/03 01:53:44;;;;;;;2.20;1.90;;;22.80;38.00;23.80;100348.00;;;;5065867;28;20651;-40
2022/09/03 01:56:51;;;;;;;2.63;1.80;;;22.80;38.10;23.80;100357.00;;;;5065066;28;20211;-39
2022/09/03 01:59:36;;;;;;;3.63;1.80;;;22.80;38.10;23.80;100354.00;;;;5066003;28;20149;-39
2022/09/03 02:02:06;;;;;;;2.13;1.93;;;22.80;38.20;23.80;100352.00;;;;5065281;28;20158;-40
2022/09/03 02:04:32;;;;;;;2.20;2.00;;;22.80;38.20;23.70;100347.00;;;;5066146;28;20172;-39
2022/09/03 02:06:59;;;;;;;2.00;1.53;;;22.70;38.30;23.70;100353.00;;;;5066200;28;20161;-39
2022/09/03 02:09:25;;;;;;;2.63;1.80;;;22.70;38.30;23.70;100354.00;;;;5072528;28;20190;-39
2022/09/03 02:12:13;;;;;;;1.83;1.70;;;22.70;38.30;23.70;100353.00;;;;5086779;28;20165;-38
2022/09/03 02:14:39;;;;;;;3.10;1.80;;;22.60;38.30;23.70;100357.00;;;;5067387;28;20242;-39
2022/09/03 02:17:05;;;;;;;2.07;1.60;;;22.70;38.50;23.70;100350.00;;;;5064660;28;20207;-39
2022/09/03 02:19:31;;;;;;;2.23;1.63;;;22.60;38.50;23.70;100352.00;;;;5064156;28;20717;-40
2022/09/03 02:21:56;;;;;;;1.90;1.80;;;22.60;38.60;23.60;100341.00;;;;5065833;28;20593;-39
2022/09/03 02:24:23;;;;;;;1.80;1.70;;;22.60;38.50;23.60;100353.00;;;;5065855;28;20171;-39
2022/09/03 02:26:49;;;;;;;2.53;1.90;;;22.60;38.50;23.60;100351.00;;;;5064587;28;20174;-39
2022/09/03 02:29:16;;;;;;;1.90;1.70;;;22.50;38.60;23.60;100336.00;;;;5065992;28;20177;-38
2022/09/03 02:31:42;;;;;;;2.17;1.80;;;22.50;38.70;23.50;100343.00;;;;5063808;28;20185;-39
2022/09/03 02:34:08;;;;;;;2.17;1.90;;;22.50;38.80;23.50;100357.00;;;;5065941;28;20170;-39
2022/09/03 02:36:37;;;;;;;2.00;1.73;;;22.50;38.80;23.60;100346.00;;;;5064725;28;20180;-39
2022/09/03 02:39:03;;;;;;;1.70;1.60;;;22.50;38.80;23.60;100346.00;;;;5064270;28;20205;-39
2022/09/03 02:41:30;;;;;;;1.73;1.63;;;22.50;38.80;23.60;100349.00;;;;5065432;28;20217;-39
2022/09/03 02:44:07;;;;;;;2.10;1.90;;;22.50;38.80;23.60;100345.00;;;;5065627;28;20188;-39
2022/09/03 02:46:56;;;;;;;2.00;1.83;;;22.50;38.80;23.50;100348.00;;;;5064676;28;20193;-38
2022/09/03 02:49:22;;;;;;;1.70;1.57;;;22.50;39.00;23.50;100344.00;;;;5063708;28;20206;-39
2022/09/03 02:51:48;;;;;;;1.80;1.70;;;22.40;38.90;23.50;100341.00;;;;5065240;28;20622;-38
2022/09/03 02:54:13;;;;;;;1.73;1.63;;;22.40;39.00;23.50;100341.00;;;;5065480;28;20193;-39
2022/09/03 02:56:39;;;;;;;3.37;1.60;;;22.40;39.10;23.50;100338.00;;;;5064124;28;20178;-39
2022/09/03 02:59:07;;;;;;;2.67;1.80;;;22.40;39.20;23.50;100342.00;;;;5065440;28;20265;-39
2022/09/03 03:01:32;;;;;;;2.03;1.83;;;22.40;39.20;23.40;100342.00;;;;5064831;28;20201;-39
2022/09/03 03:03:58;;;;;;;2.67;1.70;;;22.40;39.20;23.40;100334.00;;;;5067099;28;20177;-39
2022/09/03 03:06:24;;;;;;;2.20;1.80;;;22.40;39.30;23.40;100343.00;;;;5071612;28;20174;-39
2022/09/03 03:08:50;;;;;;;2.50;1.70;;;22.40;39.30;23.40;100343.00;;;;5074761;28;20165;-39
2022/09/03 03:11:17;;;;;;;1.83;1.73;;;22.30;39.30;23.40;100346.00;;;;5069093;28;20216;-39
2022/09/03 03:13:44;;;;;;;2.07;1.80;;;22.30;39.40;23.40;100351.00;;;;5067706;28;20189;-39
2022/09/03 03:16:10;;;;;;;2.00;1.80;;;22.30;39.40;23.40;100333.00;;;;5072892;28;20229;-39
2022/09/03 03:18:36;;;;;;;2.93;1.87;;;22.40;39.40;23.40;100341.00;;;;5076412;28;20173;-39
2022/09/03 03:21:09;;;;;;;2.27;1.80;;;22.40;39.40;23.40;100340.00;;;;5069120;28;20757;-39
2022/09/03 03:23:35;;;;;;;1.80;1.70;;;22.30;39.40;23.30;100338.00;;;;5068846;28;20492;-39
2022/09/03 03:26:03;;;;;;;1.83;1.73;;;22.30;39.50;23.30;100330.00;;;;5069141;28;20277;-39
2022/09/03 03:28:32;;;;;;;5.77;2.00;;;22.30;39.60;23.30;100331.00;;;;5068711;28;20194;-39
2022/09/03 03:31:18;;;;;;;2.90;1.80;;;22.30;40.00;23.30;100325.00;;;;5068130;28;20249;-40
2022/09/03 03:33:52;;;;;;;4.33;1.93;;;22.20;39.60;23.30;100332.00;;;;5068277;28;20181;-39
2022/09/03 03:36:18;;;;;;;4.47;2.00;;;22.30;39.90;23.20;100332.00;;;;5067477;28;20158;-39
2022/09/03 03:38:44;;;;;;;14.43;2.53;;;22.20;39.70;23.10;100333.00;;;;5067128;28;20176;-39
2022/09/03 03:41:13;;;;;;;6.63;1.93;;;22.20;39.90;23.10;100331.00;;;;5068623;28;20449;-39
2022/09/03 03:43:39;;;;;;;2.40;1.90;;;22.20;40.10;23.10;100321.00;;;;5068582;28;20263;-39
2022/09/03 03:46:05;;;;;;;3.23;1.80;;;22.20;40.40;23.10;100324.00;;;;5069050;28;20181;-39
2022/09/03 03:48:31;;;;;;;4.20;1.80;;;22.10;40.30;23.00;100312.00;;;;5068606;28;20173;-39
2022/09/03 03:51:03;;;;;;;1.90;1.80;;;22.10;40.20;23.00;100313.00;;;;5068313;28;20720;-39
2022/09/03 03:53:29;;;;;;;2.00;1.80;;;22.10;40.20;23.00;100318.00;;;;5069071;28;20186;-40
2022/09/03 03:55:56;;;;;;;2.00;1.80;;;22.10;40.20;23.00;100330.00;;;;5069562;28;20209;-40
2022/09/03 03:58:22;;;;;;;2.23;1.80;;;22.10;40.20;23.00;100321.00;;;;5068861;28;20190;-39
2022/09/03 04:00:50;;;;;;;2.00;1.80;;;22.10;40.30;23.00;100321.00;;;;5068893;28;20706;-39
2022/09/03 04:03:15;;;;;;;2.20;2.00;;;22.00;40.20;23.00;100319.00;;;;5069107;28;20272;-39
2022/09/03 04:05:41;;;;;;;1.80;1.70;;;22.00;40.20;23.00;100318.00;;;;5068156;28;20281;-39
2022/09/03 04:08:07;;;;;;;3.43;1.70;;;22.10;40.30;23.00;100315.00;;;;5070758;28;20169;-40
2022/09/03 04:10:33;;;;;;;3.47;1.70;;;22.10;40.30;23.00;100322.00;;;;5070468;28;20209;-40
2022/09/03 04:12:59;;;;;;;2.03;1.80;;;22.10;40.20;23.00;100316.00;;;;5069761;28;20253;-39
2022/09/03 04:15:25;;;;;;;2.57;1.60;;;22.00;40.20;23.00;100323.00;;;;5068552;28;20212;-39
2022/09/03 04:17:54;;;;;;;1.70;1.60;;;22.00;40.30;23.00;100312.00;;;;5073044;28;20237;-38
2022/09/03 04:20:19;;;;;;;2.03;1.70;;;22.00;40.30;22.90;100317.00;;;;5077684;28;20273;-40
2022/09/03 04:22:45;;;;;;;1.77;1.67;;;22.00;40.40;22.90;100309.00;;;;5080160;28;20196;-39
2022/09/03 04:25:11;;;;;;;2.67;2.00;;;22.00;40.50;22.90;100319.00;;;;5069897;28;20173;-40
2022/09/03 04:27:37;;;;;;;2.10;1.90;;;22.00;40.60;22.80;100317.00;;;;5069078;28;20193;-39
2022/09/03 04:30:03;;;;;;;1.70;1.60;;;21.90;40.60;22.80;100308.00;;;;5068990;28;20216;-39
2022/09/03 04:35:13;;;;;;;1.90;1.80;;;21.90;40.70;22.70;100307.00;;;;5069262;28;20165;-40
2022/09/03 04:37:39;;;;;;;2.97;1.80;;;21.80;40.70;22.70;100300.00;;;;5068837;28;20178;-39
2022/09/03 04:40:05;;;;;;;5.07;1.90;;;21.90;40.80;22.80;100312.00;;;;5068700;28;20686;-39
2022/09/03 04:42:31;;;;;;;2.00;1.73;;;21.80;41.00;22.80;100310.00;;;;5069355;28;20266;-39
2022/09/03 04:44:57;;;;;;;2.33;1.80;;;21.90;41.10;22.80;100316.00;;;;5068905;28;20247;-39
2022/09/03 04:47:22;;;;;;;6.23;1.97;;;21.90;41.10;22.80;100308.00;;;;5068796;28;20254;-40
2022/09/03 04:49:48;;;;;;;5.93;2.10;;;21.90;41.20;22.80;100316.00;;;;5068738;28;20331;-39
2022/09/03 04:52:14;;;;;;;13.30;2.40;;;21.80;41.00;22.70;100316.00;;;;5068399;28;20192;-40
2022/09/03 04:54:40;;;;;;;3.40;1.70;;;21.80;41.00;22.70;100315.00;;;;5067168;28;20196;-39
2022/09/03 04:57:05;;;;;;;2.43;1.80;;;21.80;41.20;22.70;100320.00;;;;5054588;28;20682;-39
2022/09/03 04:59:31;;;;;;;2.00;1.80;;;21.80;41.30;22.70;100326.00;;;;5068038;28;20666;-39
2022/09/03 05:01:57;;;;;;;1.80;1.70;;;21.80;41.40;22.70;100325.00;;;;5067820;28;20184;-39
2022/09/03 05:04:23;;;;;;;2.70;1.80;;;21.80;41.40;22.70;100342.00;;;;5068049;28;20184;-39
2022/09/03 05:06:48;;;;;;;2.73;1.80;;;21.80;41.40;22.70;100331.00;;;;5067579;28;20169;-39
2022/09/03 05:09:14;;;;;;;1.70;1.60;;;21.90;42.20;22.70;100321.00;;;;5068334;28;20185;-40
2022/09/03 05:11:40;;;;;;;2.57;1.60;;;21.80;41.60;22.70;100324.00;;;;5068276;28;20562;-39
2022/09/03 05:14:06;;;;;;;5.10;1.90;;;21.70;41.70;22.60;100326.00;;;;5066988;28;20622;-40
2022/09/03 05:16:31;;;;;;;4.93;2.00;;;21.70;41.80;22.60;100323.00;;;;5073736;28;20197;-38
2022/09/03 05:18:58;;;;;;;2.73;1.73;;;21.70;41.70;22.60;100325.00;;;;5082939;28;20233;-39
2022/09/03 05:21:25;;;;;;;2.43;1.70;;;21.70;41.60;22.70;100323.00;;;;5074754;28;20232;-39
2022/09/03 05:23:51;;;;;;;3.10;1.80;;;21.80;41.70;22.70;100326.00;;;;5073935;28;20170;-37
2022/09/03 05:26:25;;;;;;;2.13;1.87;;;21.70;41.70;22.60;100330.00;;;;5067227;28;20150;-39
2022/09/03 05:28:58;;;;;;;2.50;1.80;;;21.80;41.70;22.50;100323.00;;;;5067595;28;20169;-39
2022/09/03 05:31:26;;;;;;;3.47;1.70;;;21.70;41.80;22.50;100322.00;;;;5067682;28;20197;-40
2022/09/03 05:33:56;;;;;;;1.97;1.73;;;21.70;42.60;22.40;100330.00;;;;5067607;28;20174;-39
2022/09/03 05:36:23;;;;;;;1.70;1.60;;;21.60;42.00;22.40;100315.00;;;;5067788;28;20184;-39
2022/09/03 05:38:49;;;;;;;1.80;1.70;;;21.60;42.10;22.40;100324.00;;;;5075319;28;20272;-40
2022/09/03 05:41:16;;;;;;;1.90;1.80;;;21.60;42.30;22.30;100316.00;;;;5069252;28;20288;-39
2022/09/03 05:43:42;;;;;;;1.97;1.80;;;21.60;42.30;22.30;100316.00;;;;5069488;28;20256;-39
2022/09/03 05:46:10;;;;;;;1.83;1.73;;;21.60;42.50;22.30;100320.00;;;;5070148;28;20207;-42
2022/09/03 05:48:37;;;;;;;1.77;1.67;;;21.60;42.50;22.30;100310.00;;;;5069925;28;20474;-38
2022/09/03 05:51:17;;;;;;;2.07;1.70;;;21.50;42.60;22.30;100318.00;;;;5069210;28;20200;-38
2022/09/03 05:53:46;;;;;;;2.93;1.90;;;21.60;42.60;22.30;100321.00;;;;5067343;28;20189;-40
2022/09/03 05:56:17;;;;;;;2.27;1.80;;;21.60;42.60;22.20;100325.00;;;;5067321;28;20184;-39
2022/09/03 05:58:44;;;;;;;1.97;1.80;;;21.60;42.60;22.20;100324.00;;;;5065850;28;20161;-39
2022/09/03 06:01:12;;;;;;;2.03;1.70;;;21.50;42.70;22.20;100271.00;;;;5066878;28;20744;-39
2022/09/03 06:03:37;;;;;;;1.90;1.80;;;21.60;42.90;22.30;100326.00;;;;5067746;28;20200;-39
2022/09/03 06:06:04;;;;;;;2.00;1.70;;;21.60;43.00;22.30;100339.00;;;;5067793;28;20326;-38
2022/09/03 06:08:30;;;;;;;1.93;1.80;;;21.60;42.90;22.30;100331.00;;;;5067427;28;20564;-39
2022/09/03 06:11:04;;;;;;;5.07;1.70;;;21.60;42.90;22.40;100340.00;;;;5067103;28;20212;-39
2022/09/03 06:13:31;;;;;;;2.93;1.73;;;21.60;42.80;22.40;100335.00;;;;5067712;28;20613;-39
2022/09/03 06:15:58;;;;;;;2.00;1.80;;;21.60;42.80;22.40;100332.00;;;;5067515;28;20646;-43
2022/09/03 06:18:25;;;;;;;2.83;1.90;;;21.60;42.80;22.40;100343.00;;;;5067381;28;20215;-39
2022/09/03 06:21:00;;;;;;;2.13;1.90;;;21.60;42.90;22.40;100340.00;;;;5068060;28;20218;-39
2022/09/03 06:23:26;;;;;;;1.90;1.80;;;21.60;43.10;22.40;100338.00;;;;5069144;28;20167;-39
2022/09/03 06:26:05;;;;;;;2.03;1.87;;;21.60;43.10;22.40;100341.00;;;;5066862;28;20173;-39
2022/09/03 06:28:36;;;;;;;2.50;2.10;;;21.60;43.10;22.40;100334.00;;;;5075331;28;20549;-39
2022/09/03 06:31:04;;;;;;;1.73;1.63;;;21.60;43.20;22.40;100343.00;;;;5083584;28;20228;-39
2022/09/03 06:33:30;;;;;;;2.00;1.80;;;21.60;43.30;22.40;100341.00;;;;5086329;28;20174;-39
2022/09/03 06:35:58;;;;;;;2.37;1.70;;;21.60;43.40;22.40;100335.00;;;;5080720;28;20188;-38
2022/09/03 06:38:31;;;;;;;1.97;1.70;;;21.70;43.50;22.40;100342.00;;;;5074932;28;20180;-38
2022/09/03 06:41:02;;;;;;;2.40;1.73;;;21.70;43.50;22.40;100336.00;;;;5070945;28;20213;-40
2022/09/03 06:43:29;;;;;;;2.33;1.80;;;21.60;43.50;22.40;100337.00;;;;5070884;28;20167;-38
2022/09/03 06:46:00;;;;;;;2.00;1.87;;;21.60;43.50;22.40;100344.00;;;;5070561;28;20654;-39
2022/09/03 06:48:26;;;;;;;1.80;1.70;;;21.60;43.60;22.40;100350.00;;;;5070609;28;20269;-39
2022/09/03 06:51:00;;;;;;;2.03;1.83;;;21.60;43.60;22.40;100340.00;;;;5070354;28;20215;-39
2022/09/03 06:53:28;;;;;;;2.00;1.80;;;21.60;43.70;22.30;100338.00;;;;5071130;28;20170;-38
2022/09/03 06:56:00;;;;;;;2.17;1.70;;;21.60;43.80;22.30;100341.00;;;;5070519;28;20193;-39
2022/09/03 06:58:36;;;;;;;2.00;1.80;;;21.60;43.90;22.30;100340.00;;;;5076461;28;20165;-39
2022/09/03 07:01:07;;;;;;;1.83;1.73;;;21.60;43.90;22.30;100341.00;;;;5076222;28;20209;-38
2022/09/03 07:03:37;;;;;;;3.47;2.10;;;21.60;43.90;22.40;100341.00;;;;5069477;28;20178;-40
2022/09/03 07:06:17;;;;;;;2.10;1.90;;;21.60;43.90;22.40;100341.00;;;;5070314;28;20173;-40
2022/09/03 07:08:43;;;;;;;2.50;1.97;;;21.70;44.00;22.40;100343.00;;;;5072118;28;20184;-39
2022/09/03 07:11:14;;;;;;;1.90;1.70;;;21.60;44.10;22.30;100343.00;;;;5086019;28;20691;-39
2022/09/03 07:13:42;;;;;;;1.90;1.80;;;21.60;44.10;22.30;100345.00;;;;5070307;28;20185;-40
2022/09/03 07:16:29;;;;;;;1.80;1.70;;;21.60;44.10;22.30;100340.00;;;;5068557;28;20660;-40
2022/09/03 07:18:55;;;;;;;2.10;1.90;;;21.60;44.10;22.30;100343.00;;;;5068535;28;20170;-39
2022/09/03 07:21:26;;;;;;;2.10;1.90;;;21.60;44.20;22.30;100339.00;;;;5068930;28;20213;-40
2022/09/03 07:23:52;;;;;;;1.87;1.77;;;21.60;44.30;22.30;100347.00;;;;5070093;28;20676;-38
2022/09/03 07:26:26;;;;;;;2.20;1.90;;;21.60;44.30;22.30;100348.00;;;;5070029;28;20173;-41
2022/09/03 07:28:56;;;;;;;2.10;1.90;;;21.60;44.40;22.30;100353.00;;;;5069304;28;20369;-40
2022/09/03 07:31:29;;;;;;;1.93;1.80;;;21.60;44.40;22.30;100364.00;;;;5070074;28;20691;-39
2022/09/03 07:34:00;;;;;;;2.77;1.90;;;21.60;44.50;22.30;100355.00;;;;5070153;28;20167;-39
2022/09/03 07:36:27;;;;;;;1.80;1.70;;;21.70;44.50;22.30;100355.00;;;;5070505;28;20491;-39
2022/09/03 07:38:57;;;;;;;1.80;1.70;;;21.60;44.40;22.30;100349.00;;;;5069574;28;20215;-40
2022/09/03 07:41:24;;;;;;;1.70;1.60;;;21.70;44.40;22.30;100351.00;;;;5069580;28;20795;-40
2022/09/03 07:43:51;;;;;;;1.90;1.80;;;21.70;44.50;22.30;100349.00;;;;5060854;28;20192;-39
2022/09/03 07:46:22;;;;;;;2.13;1.80;;;21.70;44.40;22.30;100354.00;;;;5049853;28;20166;-38
2022/09/03 07:48:55;;;;;;;2.20;2.00;;;21.70;44.60;22.40;100345.00;;;;5050273;28;20158;-38
2022/09/03 07:51:25;;;;;;;2.03;1.50;;;21.70;44.60;22.40;100345.00;;;;4984688;28;20232;-38
2022/09/03 07:53:56;;;;;;;2.37;1.97;;;21.70;44.40;22.40;100282.00;;;;5069069;28;20178;-39
2022/09/03 07:56:22;;;;;;;2.27;2.00;;;21.70;44.30;22.40;100356.00;;;;5069694;28;20161;-39
2022/09/03 07:58:48;;;;;;;3.03;2.00;;;21.70;44.50;22.40;100356.00;;;;5084197;28;20199;-38
2022/09/03 08:01:17;;;;;;;2.40;1.70;;;21.80;44.40;22.40;100358.00;;;;5078525;28;20474;-38
2022/09/03 08:03:45;;;;;;;2.17;1.80;;;21.70;44.30;22.40;100361.00;;;;5072336;28;20634;-39
2022/09/03 08:06:12;;;;;;;2.10;1.83;;;21.70;44.20;22.50;100374.00;;;;5069584;28;20546;-39
2022/09/03 08:08:39;;;;;;;2.23;2.07;;;21.70;44.50;22.50;100362.00;;;;5068421;28;20170;-38
2022/09/03 08:11:09;;;;;;;2.07;1.90;;;21.80;44.40;22.50;100371.00;;;;5068631;28;20211;-38
2022/09/03 08:13:39;;;;;;;2.13;1.93;;;21.70;44.60;22.50;100366.00;;;;5087190;28;20189;-40
2022/09/03 08:16:06;;;;;;;2.43;2.03;;;21.70;44.60;22.50;100377.00;;;;5092008;28;20180;-40
2022/09/03 08:18:36;;;;;;;2.53;1.80;;;21.70;45.00;22.50;100372.00;;;;5088278;28;20204;-39
2022/09/03 08:21:05;;;;;;;2.70;2.00;;;21.70;45.00;22.50;100383.00;;;;5088312;28;20728;-38
2022/09/03 08:23:36;;;;;;;2.00;1.80;;;21.70;44.90;22.50;100383.00;;;;5088609;28;20173;-39
2022/09/03 08:26:02;;;;;;;2.63;1.70;;;21.70;45.30;22.50;100392.00;;;;5098786;28;20157;-38
2022/09/03 08:28:27;;;;;;;2.83;2.03;;;21.70;45.20;22.50;100393.00;;;;5108431;28;20553;-38
2022/09/03 08:30:54;;;;;;;2.10;1.97;;;21.70;45.20;22.40;100390.00;;;;5095930;28;20200;-39
2022/09/03 08:33:35;;;;;;;2.40;1.90;;;21.70;45.30;22.50;100390.00;;;;5013214;28;20217;-38
2022/09/03 08:36:04;;;;;;;2.10;1.90;;;21.70;45.40;22.50;100389.00;;;;5068246;28;20204;-40
2022/09/03 08:38:33;;;;;;;2.23;1.90;;;21.70;45.40;22.50;100385.00;;;;5076769;28;21191;-38
2022/09/03 08:41:14;;;;;;;2.93;1.90;;;21.70;45.50;22.50;100402.00;;;;5088461;28;20665;-38
2022/09/03 08:43:55;;;;;;;3.43;1.87;;;21.70;45.70;22.50;100392.00;;;;5087969;28;20185;-39
2022/09/03 08:46:25;;;;;;;3.17;2.00;;;21.70;45.70;22.60;100384.00;;;;5073325;28;20235;-38
2022/09/03 08:48:51;;;;;;;2.50;2.00;;;21.80;45.80;22.60;100387.00;;;;5068381;28;20258;-39
2022/09/03 08:51:17;;;;;;;2.00;1.80;;;21.80;45.50;22.60;100373.00;;;;5086460;28;20203;-38
2022/09/03 08:53:50;;;;;;;3.40;1.93;;;21.80;45.80;22.60;100391.00;;;;5069730;28;20181;-39
2022/09/03 08:56:28;;;;;;;2.30;1.90;;;21.80;45.80;22.60;100383.00;;;;5086140;28;20169;-39
2022/09/03 08:58:54;;;;;;;2.13;1.93;;;21.80;46.10;22.60;100378.00;;;;5099700;28;20195;-39
2022/09/03 09:01:38;;;;;;;1.90;1.80;;;21.70;46.00;22.60;100387.00;;;;5085833;28;20445;-39
2022/09/03 09:04:21;;;;;;;2.10;1.90;;;21.80;46.10;22.60;100386.00;;;;5071394;28;20196;-39
2022/09/03 09:07:04;;;;;;;2.00;1.90;;;21.80;46.20;22.60;100383.00;;;;5086876;28;20165;-38
2022/09/03 09:09:42;;;;;;;1.90;1.80;;;21.90;46.50;22.60;100383.00;;;;5087670;28;20208;-39
2022/09/03 09:12:46;;;;;;;2.10;2.00;;;21.80;46.20;22.70;100389.00;;;;5066694;28;20177;-38
2022/09/03 09:15:19;;;;;;;3.50;1.90;;;21.80;46.20;22.60;100388.00;;;;5070051;28;20774;-39
2022/09/03 09:18:08;;;;;;;2.03;1.83;;;21.90;46.40;22.70;100393.00;;;;5065800;28;20178;-39
2022/09/03 09:21:12;;;;;;;2.70;2.10;;;21.90;46.50;22.70;100390.00;;;;5044675;28;20227;-39
2022/09/03 09:23:48;;;;;;;3.07;2.20;;;21.90;46.60;22.70;100389.00;;;;5042529;28;20192;-40
2022/09/03 09:26:17;;;;;;;3.03;1.90;;;21.90;46.40;22.70;100393.00;;;;5087910;28;20263;-42
2022/09/03 09:28:45;;;;;;;3.80;1.90;;;22.00;46.40;22.70;100391.00;;;;5059444;28;20178;-41
2022/09/03 09:31:14;;;;;;;2.60;2.13;;;22.00;46.60;22.70;100392.00;;;;5045349;28;20776;-42
2022/09/03 09:33:40;;;;;;;3.57;2.07;;;22.00;46.20;22.80;100388.00;;;;4994186;28;20186;-42
2022/09/03 09:36:10;;;;;;;3.17;2.00;;;22.10;46.00;22.80;100386.00;;;;5073399;28;20235;-43
2022/09/03 09:38:38;;;;;;;2.83;2.00;;;22.10;46.00;22.80;100387.00;;;;5065909;28;20696;-42
2022/09/03 09:41:22;;;;;;;2.23;2.03;;;22.10;46.00;22.90;100390.00;;;;5076314;28;20300;-40
2022/09/03 09:43:58;;;;;;;3.30;1.87;;;22.10;45.90;22.90;100393.00;;;;5078042;28;20195;-43
2022/09/03 09:46:26;;;;;;;2.67;2.00;;;22.10;46.00;22.90;100392.00;;;;5075793;28;20161;-42
2022/09/03 09:48:54;;;;;;;4.30;1.90;;;22.20;46.10;22.90;100374.00;;;;5068849;28;20199;-41
2022/09/03 09:51:30;;;;;;;4.27;2.13;;;22.20;46.00;23.00;100394.00;;;;5069096;28;20216;-41
2022/09/03 09:54:17;;;;;;;6.87;2.20;;;22.20;46.00;23.00;100395.00;;;;5087057;28;20750;-41
2022/09/03 09:56:43;;;;;;;4.80;2.00;;;22.20;45.90;23.00;100395.00;;;;5100000;28;20194;-42
2022/09/03 09:59:10;;;;;;;6.00;2.13;;;22.20;45.70;23.00;100396.00;;;;5110969;28;20177;-43
2022/09/03 10:01:38;;;;;;;3.87;1.80;;;22.20;45.90;23.00;100388.00;;;;5106411;28;20197;-43
2022/09/03 10:04:12;;;;;;;4.70;1.80;;;22.30;46.20;23.00;100400.00;;;;5084132;28;20218;-41
2022/09/03 10:06:54;;;;;;;5.83;2.37;;;22.20;46.60;23.10;100396.00;;;;5075157;28;20172;-42
2022/09/03 10:09:30;;;;;;;4.73;2.17;;;22.30;46.40;22.80;100393.00;;;;5085565;28;20279;-41
2022/09/03 10:11:55;;;;;;;4.00;2.20;;;22.30;46.20;23.10;100396.00;;;;5087680;28;20279;-40
2022/09/03 10:14:33;;;;;;;4.60;2.00;;;22.30;46.50;23.10;100383.00;;;;5091355;28;20164;-41
2022/09/03 10:17:15;;;;;;;5.10;2.03;;;22.30;46.40;22.90;100394.00;;;;5073622;28;20367;-42
2022/09/03 10:20:32;;;;;;;5.77;2.13;;;22.30;46.20;23.10;100407.00;;;;5090095;28;20199;-42
2022/09/03 10:23:07;;;;;;;2.50;2.10;;;22.30;46.20;23.10;100405.00;;;;5091553;28;20767;-41
2022/09/03 10:26:05;;;;;;;2.90;2.10;;;22.30;46.20;23.10;100407.00;;;;5091844;28;20164;-42
2022/09/03 10:28:39;;;;;;;2.30;2.10;;;22.30;46.20;23.10;100410.00;;;;5075670;28;20170;-40
2022/09/03 10:31:17;;;;;;;2.00;1.90;;;22.30;46.80;23.20;100409.00;;;;5069515;28;20246;-40
2022/09/03 10:34:12;;;;;;;3.83;2.20;;;22.40;46.40;23.20;100406.00;;;;5017153;28;20176;-40
2022/09/03 10:36:55;;;;;;;2.20;2.00;;;22.30;46.40;23.20;100403.00;;;;5071398;28;20215;-41
2022/09/03 10:39:37;;;;;;;6.20;2.00;;;22.40;47.80;23.20;100394.00;;;;5055219;28;20228;-40
2022/09/03 10:42:27;;;;;;;6.10;2.20;;;22.40;47.80;23.20;100407.00;;;;5070820;28;20425;-41
2022/09/03 10:45:20;;;;;;;5.43;2.27;;;22.40;48.00;23.20;100400.00;;;;5086165;28;20237;-41
2022/09/03 10:47:58;;;;;;;9.77;2.33;;;22.40;48.10;23.20;100395.00;;;;5069363;28;20169;-42
2022/09/03 10:51:08;;;;;;;4.73;2.00;;;22.40;48.90;23.30;100403.00;;;;5068945;28;20223;-41
2022/09/03 10:54:12;;;;;;;3.40;2.20;;;22.40;49.50;23.30;100412.00;;;;5055923;28;20182;-41
2022/09/03 10:57:15;;;;;;;3.63;2.00;;;22.40;49.60;23.30;100402.00;;;;5042595;28;20177;-41
2022/09/03 11:00:04;;;;;;;6.20;2.13;;;22.50;49.80;23.30;100401.00;;;;5068752;28;20291;-41
2022/09/03 11:03:07;;;;;;;4.47;2.20;;;22.50;50.40;23.30;100405.00;;;;5079551;28;20170;-42
2022/09/03 11:06:05;;;;;;;4.60;2.07;;;22.50;51.10;23.40;100410.00;;;;5060352;28;20162;-41
2022/09/03 11:09:01;;;;;;;3.00;2.10;;;22.50;51.50;23.40;100401.00;;;;5058373;28;20671;-41
2022/09/03 11:11:58;;;;;;;3.23;2.00;;;22.60;51.40;23.40;100394.00;;;;5064442;28;20206;-42
2022/09/03 11:14:45;;;;;;;3.03;2.37;;;22.50;51.30;23.40;100388.00;;;;5068126;28;20715;-40
2022/09/03 11:17:25;;;;;;;2.53;1.90;;;22.50;50.50;23.40;100387.00;;;;5056039;28;20859;-41
2022/09/03 11:20:19;;;;;;;2.30;2.10;;;22.50;50.50;23.50;100380.00;;;;5073229;28;20189;-41
2022/09/03 11:22:45;;;;;;;3.17;1.97;;;22.50;50.50;23.40;100388.00;;;;5090939;28;20208;-41
2022/09/03 11:25:13;;;;;;;2.97;2.10;;;22.50;50.60;23.30;100384.00;;;;5088432;28;20654;-42
2022/09/03 11:27:42;;;;;;;2.60;1.90;;;22.50;50.60;23.50;100390.00;;;;5072048;28;20165;-41